createdAt,value
2022-11-25T01:02:32.546Z,4.38
2022-11-25T01:05:20.091Z,4.51
2022-11-25T01:08:07.547Z,4.60
2022-11-25T01:11:09.180Z,4.78
2022-11-25T01:14:01.178Z,4.81
2022-11-25T01:16:50.090Z,4.88
2022-11-25T01:19:40.604Z,4.64
2022-11-25T01:22:28.153Z,4.83
2022-11-25T01:25:16.781Z,4.76
2022-11-25T01:28:04.650Z,4.69
2022-11-25T01:31:03.046Z,4.71
2022-11-25T01:34:02.106Z,4.68
2022-11-25T01:36:49.758Z,4.54
2022-11-25T01:39:38.949Z,4.43
2022-11-25T01:42:30.432Z,4.54
2022-11-25T01:45:27.919Z,4.48
2022-11-25T01:48:25.007Z,4.27
2022-11-25T01:51:35.561Z,4.38
2022-11-25T01:54:25.935Z,4.19
2022-11-25T01:57:23.494Z,4.23
2022-11-25T02:00:11.542Z,4.18
2022-11-25T02:02:59.829Z,4.09
2022-11-25T02:06:09.071Z,4.09
2022-11-25T02:09:01.612Z,4.29
2022-11-25T02:11:49.493Z,4.07
2022-11-25T02:14:37.184Z,3.94
2022-11-25T02:17:25.033Z,3.95
2022-11-25T02:20:16.211Z,4.04
2022-11-25T02:23:14.899Z,3.90
2022-11-25T02:26:02.970Z,3.79
2022-11-25T02:28:50.987Z,3.90
2022-11-25T02:31:38.406Z,3.87
2022-11-25T02:34:25.953Z,3.85
2022-11-25T02:37:15.047Z,3.79
2022-11-25T02:40:03.323Z,3.78
2022-11-25T02:42:55.478Z,3.63
2022-11-25T02:45:50.357Z,3.63
2022-11-25T02:49:07.351Z,3.64
2022-11-25T02:51:47.083Z,3.75
2022-11-25T02:54:34.905Z,3.60
2022-11-25T02:57:22.986Z,3.59
2022-11-25T03:00:10.993Z,3.56
2022-11-25T03:02:58.566Z,3.61
2022-11-25T03:05:46.221Z,3.64
2022-11-25T03:08:33.619Z,3.57
2022-11-25T03:11:21.088Z,3.56
2022-11-25T03:14:08.659Z,3.44
2022-11-25T03:16:56.817Z,3.50
2022-11-25T03:19:45.251Z,3.35
2022-11-25T03:22:32.805Z,3.48
2022-11-25T03:25:20.505Z,3.46
2022-11-25T03:28:07.884Z,3.36
2022-11-25T03:30:55.414Z,3.35
2022-11-25T03:33:42.859Z,3.49
2022-11-25T03:36:30.336Z,3.27
2022-11-25T03:39:18.148Z,3.44
2022-11-25T03:42:05.593Z,3.32
2022-11-25T03:44:52.938Z,3.30
2022-11-25T03:47:41.498Z,3.19
2022-11-25T03:50:28.986Z,3.40
2022-11-25T03:53:18.559Z,3.21
2022-11-25T03:56:06.229Z,3.12
2022-11-25T03:58:53.593Z,3.39
2022-11-25T04:01:44.183Z,3.18
2022-11-25T04:04:32.199Z,3.24
2022-11-25T04:07:19.672Z,3.27
2022-11-25T04:10:08.014Z,3.27
2022-11-25T04:12:55.747Z,3.26
2022-11-25T04:15:50.782Z,2.95
2022-11-25T04:18:38.589Z,3.12
2022-11-25T04:21:25.995Z,3.09
2022-11-25T04:24:13.516Z,3.09
2022-11-25T04:27:01.073Z,3.15
2022-11-25T04:29:48.459Z,3.03
2022-11-25T04:32:38.163Z,3.06
2022-11-25T04:35:25.678Z,3.03
2022-11-25T04:38:13.164Z,3.13
2022-11-25T04:41:00.585Z,3.04
2022-11-25T04:43:48.137Z,3.24
2022-11-25T04:46:40.335Z,3.06
2022-11-25T04:49:27.800Z,3.14
2022-11-25T04:52:15.247Z,3.03
2022-11-25T04:55:02.684Z,3.13
2022-11-25T04:57:50.361Z,2.95
2022-11-25T05:00:37.901Z,3.11
2022-11-25T05:03:25.256Z,3.15
2022-11-25T05:06:12.687Z,2.98
2022-11-25T05:09:00.124Z,3.03
2022-11-25T05:11:47.926Z,2.91
2022-11-25T05:14:38.082Z,2.98
2022-11-25T05:17:29.145Z,2.98
2022-11-25T05:20:16.599Z,3.08
2022-11-25T05:23:04.697Z,3.19
2022-11-25T05:25:52.133Z,3.06
2022-11-25T05:28:39.525Z,3.00
2022-11-25T05:31:27.225Z,2.97
2022-11-25T05:34:14.729Z,3.03
2022-11-25T05:37:02.278Z,3.14
2022-11-25T05:39:49.651Z,3.21
2022-11-25T05:42:37.211Z,2.97
2022-11-25T05:45:24.603Z,3.15
2022-11-25T05:48:12.165Z,2.94
2022-11-25T05:51:01.347Z,3.16
2022-11-25T05:53:48.809Z,3.14
2022-11-25T05:56:36.716Z,3.15
2022-11-25T05:59:24.133Z,3.03
2022-11-25T06:02:13.028Z,3.19
2022-11-25T06:05:01.320Z,3.15
2022-11-25T06:07:49.843Z,3.27
2022-11-25T06:10:41.924Z,3.21
2022-11-25T06:13:30.069Z,3.04
2022-11-25T06:16:22.178Z,3.16
2022-11-25T06:23:10.064Z,3.29
2022-11-25T06:26:18.265Z,3.27
2022-11-25T06:29:06.206Z,3.21
2022-11-25T06:31:55.473Z,2.99
2022-11-25T06:34:43.165Z,3.11
2022-11-25T06:37:32.354Z,3.16
2022-11-25T06:40:19.782Z,3.27
2022-11-25T06:43:07.326Z,3.30
2022-11-25T06:46:10.020Z,3.19
2022-11-25T06:49:01.355Z,3.29
2022-11-25T06:51:51.978Z,3.14
2022-11-25T06:54:42.268Z,3.31
2022-11-25T06:57:29.970Z,3.06
2022-11-25T07:00:18.001Z,2.97
2022-11-25T07:03:05.522Z,3.18
2022-11-25T07:05:57.232Z,3.27
2022-11-25T07:08:45.721Z,3.37
2022-11-25T07:11:35.944Z,3.36
2022-11-25T07:14:23.735Z,3.24
2022-11-25T07:17:12.350Z,3.45
2022-11-25T07:20:00.081Z,3.38
2022-11-25T07:22:47.658Z,3.59
2022-11-25T07:25:35.636Z,3.57
2022-11-25T07:28:23.326Z,3.31
2022-11-25T07:31:30.993Z,3.61
2022-11-25T07:34:21.575Z,3.51
2022-11-25T07:37:09.059Z,3.57
2022-11-25T07:39:56.737Z,3.63
2022-11-25T07:42:44.298Z,3.69
2022-11-25T07:45:31.858Z,3.71
2022-11-25T07:48:19.447Z,3.84
2022-11-25T07:51:22.766Z,3.73
2022-11-25T07:54:12.876Z,4.03
2022-11-25T07:57:00.690Z,3.88
2022-11-25T07:59:48.734Z,3.98
2022-11-25T08:02:36.551Z,3.93
2022-11-25T08:05:24.217Z,3.91
2022-11-25T08:08:11.955Z,3.94
2022-11-25T08:10:59.772Z,3.95
2022-11-25T08:13:47.688Z,3.87
2022-11-25T08:16:47.531Z,3.90
2022-11-25T08:19:36.117Z,4.15
2022-11-25T08:22:23.857Z,4.14
2022-11-25T08:25:11.798Z,4.13
2022-11-25T08:28:00.528Z,4.15
2022-11-25T08:30:48.176Z,4.24
2022-11-25T08:33:35.666Z,4.17
2022-11-25T08:36:24.232Z,4.43
2022-11-25T08:39:36.177Z,4.43
2022-11-25T08:42:19.829Z,4.58
2022-11-25T08:45:08.577Z,4.51
2022-11-25T08:47:56.523Z,4.61
2022-11-25T08:50:49.287Z,4.54
2022-11-25T08:53:39.142Z,4.59
2022-11-25T08:56:27.058Z,4.83
2022-11-25T08:59:14.483Z,4.82
2022-11-25T09:02:02.414Z,4.74
2022-11-25T09:04:50.039Z,4.78
2022-11-25T09:07:37.673Z,4.98
2022-11-25T09:10:25.297Z,5.11
2022-11-25T09:13:12.948Z,4.97
2022-11-25T09:16:02.090Z,5.06
2022-11-25T09:18:55.429Z,5.30
2022-11-25T09:21:44.307Z,5.22
2022-11-25T09:24:32.016Z,5.25
2022-11-25T09:27:19.502Z,5.02
2022-11-25T09:30:08.341Z,5.04
2022-11-25T09:32:57.012Z,4.98
2022-11-25T09:35:47.260Z,5.14
2022-11-25T09:38:38.899Z,4.97
2022-11-25T09:42:29.668Z,5.13
2022-11-25T09:45:57.735Z,5.14
2022-11-25T09:49:00.291Z,5.04
2022-11-25T09:52:04.609Z,4.76
2022-11-25T09:55:10.682Z,4.99
2022-11-25T09:58:18.485Z,5.24
2022-11-25T10:01:15.781Z,5.28
2022-11-25T10:04:13.727Z,4.89
2022-11-25T10:07:03.849Z,5.10
2022-11-25T10:09:52.699Z,5.08
2022-11-25T10:12:45.054Z,5.16
2022-11-25T10:15:46.434Z,5.13
2022-11-25T10:18:41.404Z,5.08
2022-11-25T10:21:29.446Z,5.21
2022-11-25T10:24:18.986Z,5.24
2022-11-25T10:27:08.634Z,5.37
2022-11-25T10:30:07.436Z,5.23
2022-11-25T10:33:06.924Z,5.42
2022-11-25T10:36:00.523Z,5.51
2022-11-25T10:39:07.202Z,5.43
2022-11-25T10:42:07.345Z,5.51
2022-11-25T10:44:55.424Z,5.38
2022-11-25T10:48:13.698Z,5.39
2022-11-25T10:51:40.826Z,5.77
2022-11-25T10:54:29.572Z,5.85
2022-11-25T10:57:21.548Z,5.64
2022-11-25T11:00:25.493Z,5.83
2022-11-25T11:03:16.254Z,5.84
2022-11-25T11:06:04.291Z,5.64
2022-11-25T11:08:51.904Z,5.71
2022-11-25T11:11:50.474Z,5.83
2022-11-25T11:14:38.698Z,5.57
2022-11-25T11:17:33.282Z,5.91
2022-11-25T11:20:31.637Z,5.85
2022-11-25T11:23:19.827Z,5.88
2022-11-25T11:26:10.767Z,5.71
2022-11-25T11:29:02.809Z,5.55
2022-11-25T11:32:01.379Z,5.91
2022-11-25T11:35:08.522Z,6.00
2022-11-25T11:38:02.736Z,5.66
2022-11-25T11:40:56.442Z,5.72
2022-11-25T11:44:03.951Z,6.04
2022-11-25T11:46:55.788Z,6.12
2022-11-25T11:50:10.563Z,5.96
2022-11-25T11:53:38.753Z,5.94
2022-11-25T11:56:46.245Z,6.22
2022-11-25T11:59:53.696Z,6.19
2022-11-25T12:02:54.768Z,6.24
2022-11-25T12:05:42.722Z,5.95
2022-11-25T12:08:35.325Z,6.27
2022-11-25T12:11:31.444Z,6.27
2022-11-25T12:18:33.533Z,6.33
2022-11-25T12:21:53.866Z,6.23
2022-11-25T12:25:01.213Z,6.23
2022-11-25T12:28:06.599Z,6.19
2022-11-25T12:31:04.679Z,6.10
2022-11-25T12:34:24.460Z,6.26
2022-11-25T12:37:33.327Z,6.01
2022-11-25T12:40:34.379Z,6.12
2022-11-25T12:43:34.733Z,6.07
2022-11-25T12:46:29.693Z,6.32
2022-11-25T12:49:29.468Z,6.18
2022-11-25T12:52:39.994Z,6.32
2022-11-25T12:55:29.155Z,6.23
2022-11-25T12:58:19.742Z,6.26
2022-11-25T13:02:34.007Z,6.42
2022-11-25T13:06:20.748Z,6.37
2022-11-25T13:09:37.787Z,6.41
2022-11-25T13:12:58.535Z,6.25
2022-11-25T13:15:52.346Z,6.42
2022-11-25T13:18:48.556Z,6.09
2022-11-25T13:21:56.841Z,6.36
2022-11-25T13:24:46.305Z,6.12
2022-11-25T13:27:43.387Z,6.37
2022-11-25T13:30:34.255Z,6.43
2022-11-25T13:33:25.390Z,6.44
2022-11-25T13:36:48.448Z,6.32
2022-11-25T13:39:39.824Z,6.27
2022-11-25T13:42:29.911Z,6.19
2022-11-25T13:48:50.032Z,6.30
2022-11-25T13:51:38.574Z,6.31
2022-11-25T13:54:34.381Z,6.27
2022-11-25T13:57:32.326Z,6.44
2022-11-25T14:01:02.300Z,6.45
2022-11-25T14:03:57.107Z,6.43
2022-11-25T14:10:16.147Z,6.47
2022-11-25T14:13:19.815Z,6.33
2022-11-25T14:16:24.187Z,6.49
2022-11-25T14:19:57.227Z,6.44
2022-11-25T14:23:07.637Z,6.52
2022-11-25T14:26:04.070Z,6.42
2022-11-25T14:29:25.501Z,6.50
2022-11-25T14:36:36.593Z,6.10
2022-11-25T14:39:58.723Z,6.38
2022-11-25T14:45:21.765Z,6.48
2022-11-25T14:48:17.468Z,6.44
2022-11-25T14:51:07.605Z,6.45
2022-11-25T14:53:57.753Z,6.50
2022-11-25T14:56:47.124Z,6.50
2022-11-25T14:59:35.686Z,6.59
2022-11-25T15:02:34.522Z,6.63
2022-11-25T15:05:38.145Z,6.60
2022-11-25T15:08:26.058Z,6.64
2022-11-25T15:11:20.185Z,6.64
2022-11-25T15:14:14.874Z,6.65
2022-11-25T15:17:08.558Z,6.59
2022-11-25T15:19:58.964Z,6.60
2022-11-25T15:22:49.449Z,6.56
2022-11-25T15:25:53.290Z,6.57
2022-11-25T15:28:43.787Z,6.67
2022-11-25T15:31:34.531Z,6.69
2022-11-25T15:34:23.850Z,6.63
2022-11-25T15:37:12.423Z,6.65
2022-11-25T15:40:37.222Z,6.72
2022-11-25T15:43:29.652Z,6.70
2022-11-25T15:46:18.782Z,6.71
2022-11-25T15:49:07.791Z,6.71
2022-11-25T15:52:00.504Z,6.65
2022-11-25T15:54:54.483Z,6.64
2022-11-25T15:57:42.490Z,6.65
2022-11-25T16:00:30.502Z,6.67
2022-11-25T16:03:20.372Z,6.66
2022-11-25T16:06:37.283Z,6.69
2022-11-25T16:09:27.446Z,6.72
2022-11-25T16:12:17.575Z,6.70
2022-11-25T16:15:05.604Z,6.78
2022-11-25T16:17:56.742Z,6.73
2022-11-25T16:20:56.885Z,6.79
2022-11-25T16:23:49.793Z,6.77
2022-11-25T16:26:51.346Z,6.75
2022-11-25T16:29:48.071Z,6.81
2022-11-25T16:32:35.438Z,6.76
2022-11-25T16:35:22.898Z,6.83
2022-11-25T16:38:11.864Z,6.85
2022-11-25T16:40:59.177Z,6.82
2022-11-25T16:43:46.667Z,6.84
2022-11-25T16:46:34.800Z,6.84
2022-11-25T16:49:22.651Z,6.88
2022-11-25T16:52:10.707Z,6.92
2022-11-25T16:54:58.080Z,6.93
2022-11-25T16:57:45.727Z,6.97
2022-11-25T17:00:33.233Z,6.98
2022-11-25T17:03:22.230Z,7.05
2022-11-25T17:06:38.342Z,7.07
2022-11-25T17:09:25.898Z,7.08
2022-11-25T17:12:49.025Z,7.13
2022-11-25T17:15:38.669Z,7.17
2022-11-25T17:18:26.301Z,7.19
2022-11-25T17:21:15.518Z,7.16
2022-11-25T17:24:12.548Z,7.20
2022-11-25T17:27:03.870Z,7.19
2022-11-25T17:29:51.780Z,7.27
2022-11-25T17:32:40.636Z,7.23
2022-11-25T17:35:28.142Z,7.24
2022-11-25T17:38:22.390Z,7.21
2022-11-25T17:41:18.647Z,7.30
2022-11-25T17:44:08.663Z,7.34
2022-11-25T17:46:57.898Z,7.35
2022-11-25T17:49:45.934Z,7.38
2022-11-25T17:52:34.615Z,7.42
2022-11-25T17:55:22.878Z,7.46
2022-11-25T17:58:11.837Z,7.48
2022-11-25T18:00:59.256Z,7.46
2022-11-25T18:03:50.026Z,7.49
2022-11-25T18:06:37.484Z,7.50
2022-11-25T18:09:25.111Z,7.58
2022-11-25T18:12:25.026Z,7.58
2022-11-25T18:15:22.814Z,7.62
2022-11-25T18:18:24.315Z,7.74
2022-11-25T18:21:12.774Z,7.78
2022-11-25T18:24:03.089Z,7.74
2022-11-25T18:26:51.522Z,7.78
2022-11-25T18:29:39.100Z,7.73
2022-11-25T18:32:26.449Z,7.66
2022-11-25T18:35:37.225Z,7.60
2022-11-25T18:38:24.734Z,7.48
2022-11-25T18:41:21.918Z,7.52
2022-11-25T18:44:29.780Z,7.49
2022-11-25T18:47:17.694Z,7.48
2022-11-25T18:50:13.839Z,7.43
2022-11-25T18:53:03.643Z,7.44
2022-11-25T18:55:51.536Z,7.43
2022-11-25T18:58:41.739Z,7.43
2022-11-25T19:01:29.568Z,7.41
2022-11-25T19:04:17.399Z,7.37
2022-11-25T19:07:05.342Z,7.39
2022-11-25T19:09:52.666Z,7.41
2022-11-25T19:12:41.802Z,7.40
2022-11-25T19:15:29.211Z,7.41
2022-11-25T19:18:25.131Z,7.43
2022-11-25T19:21:18.587Z,7.47
2022-11-25T19:24:12.982Z,7.46
2022-11-25T19:27:00.460Z,7.49
2022-11-25T19:29:49.761Z,7.47
2022-11-25T19:32:37.453Z,7.44
2022-11-25T19:35:33.482Z,7.52
2022-11-25T19:38:25.189Z,7.52
2022-11-25T19:41:14.906Z,7.53
2022-11-25T19:44:03.559Z,7.54
2022-11-25T19:47:14.188Z,7.53
2022-11-25T19:50:01.508Z,7.57
2022-11-25T19:52:50.013Z,7.51
2022-11-25T19:55:37.550Z,7.53
2022-11-25T19:58:24.945Z,7.58
2022-11-25T20:01:15.526Z,7.61
2022-11-25T20:04:03.730Z,7.66
2022-11-25T20:06:51.532Z,7.72
2022-11-25T20:09:39.973Z,7.72
2022-11-25T20:12:29.776Z,7.71
2022-11-25T20:15:17.610Z,7.75
2022-11-25T20:18:05.363Z,7.73
2022-11-25T20:21:01.255Z,7.75
2022-11-25T20:23:50.196Z,7.79
2022-11-25T20:26:40.586Z,7.81
2022-11-25T20:29:30.591Z,7.83
2022-11-25T20:32:30.296Z,7.84
2022-11-25T20:35:44.282Z,7.86
2022-11-25T20:38:33.548Z,7.80
2022-11-25T20:41:27.527Z,7.79
2022-11-25T20:44:15.642Z,7.76
2022-11-25T20:47:03.175Z,7.74
2022-11-25T20:49:50.558Z,7.77
2022-11-25T20:52:39.394Z,7.77
2022-11-25T20:55:35.712Z,7.74
2022-11-25T20:58:35.086Z,7.78
2022-11-25T21:01:23.883Z,7.86
2022-11-25T21:04:11.737Z,7.93
2022-11-25T21:06:59.249Z,7.96
2022-11-25T21:09:46.926Z,7.96
2022-11-25T21:12:34.587Z,8.06
2022-11-25T21:15:24.765Z,8.13
2022-11-25T21:18:12.427Z,8.16
2022-11-25T21:21:00.552Z,8.16
2022-11-25T21:23:48.976Z,8.19
2022-11-25T21:26:37.781Z,8.28
2022-11-25T21:29:28.090Z,8.33
2022-11-25T21:32:28.055Z,8.39
2022-11-25T21:35:15.696Z,8.44
2022-11-25T21:38:05.650Z,8.52
2022-11-25T21:40:55.391Z,8.51
2022-11-25T21:43:45.714Z,8.44
2022-11-25T21:46:33.772Z,8.39
2022-11-25T21:49:21.582Z,8.33
2022-11-25T21:52:09.787Z,8.25
2022-11-25T21:55:07.906Z,8.23
2022-11-25T21:57:55.882Z,8.16
2022-11-25T22:00:43.713Z,8.21
2022-11-25T22:03:31.799Z,8.27
2022-11-25T22:06:22.673Z,8.27
2022-11-25T22:09:11.422Z,8.34
2022-11-25T22:12:02.948Z,8.34
2022-11-25T22:14:51.379Z,8.39
2022-11-25T22:17:39.119Z,8.45
2022-11-25T22:20:34.567Z,8.49
2022-11-25T22:23:23.878Z,8.53
2022-11-25T22:26:22.196Z,8.53
2022-11-25T22:29:19.233Z,8.55
2022-11-25T22:32:12.415Z,8.57
2022-11-25T22:35:00.198Z,8.57
2022-11-25T22:37:54.774Z,8.57
2022-11-25T22:40:47.894Z,8.56
2022-11-25T22:43:40.755Z,8.57
2022-11-25T22:46:37.228Z,8.57
2022-11-25T22:49:48.255Z,8.52
2022-11-25T22:52:37.393Z,8.56
2022-11-25T22:55:31.197Z,8.56
2022-11-25T22:58:18.554Z,8.54
2022-11-25T23:01:11.735Z,8.59
2022-11-25T23:03:59.250Z,8.57
2022-11-25T23:06:47.773Z,8.62
2022-11-25T23:09:35.186Z,8.58
2022-11-25T23:12:24.869Z,8.58
2022-11-25T23:15:14.261Z,8.53
2022-11-25T23:18:03.773Z,8.41
2022-11-25T23:20:51.365Z,8.38
2022-11-25T23:23:38.715Z,8.38
2022-11-25T23:26:32.272Z,8.43
2022-11-25T23:29:22.346Z,8.37
2022-11-25T23:32:18.148Z,8.25
2022-11-25T23:35:06.505Z,8.25
2022-11-25T23:37:57.483Z,8.29
2022-11-25T23:40:45.082Z,8.24
2022-11-25T23:43:32.650Z,8.21
2022-11-25T23:46:24.011Z,8.19
2022-11-25T23:49:39.889Z,8.15
2022-11-25T23:52:28.058Z,8.04
2022-11-25T23:55:22.160Z,7.99
2022-11-25T23:58:16.062Z,8.03
